createdAt,value
2023-08-07T00:00:21.615Z,101658.06
2023-08-07T00:03:07.159Z,101666.50
2023-08-07T00:05:53.068Z,101664.81
2023-08-07T00:08:39.216Z,101665.44
2023-08-07T00:11:24.522Z,101665.31
2023-08-07T00:14:10.022Z,101662.97
2023-08-07T00:16:55.229Z,101664.03
2023-08-07T00:19:40.065Z,101658.88
2023-08-07T00:22:26.255Z,101658.34
2023-08-07T00:25:11.491Z,101661.81
2023-08-07T00:27:56.521Z,101656.00
2023-08-07T00:30:41.514Z,101674.22
2023-08-07T00:33:26.684Z,101669.59
2023-08-07T00:36:11.696Z,101666.31
2023-08-07T00:38:57.091Z,101666.50
2023-08-07T00:41:42.236Z,101662.38
2023-08-07T00:44:27.226Z,101666.63
2023-08-07T00:47:12.575Z,101663.88
2023-08-07T00:49:59.857Z,101661.53
2023-08-07T00:52:45.763Z,101655.94
2023-08-07T00:55:31.269Z,101644.84
2023-08-07T00:58:16.769Z,101659.41
2023-08-07T01:01:02.488Z,101655.38
2023-08-07T01:03:47.556Z,101651.25
2023-08-07T01:06:32.935Z,101655.13
2023-08-07T01:09:18.127Z,101656.38
2023-08-07T01:12:17.444Z,101648.97
2023-08-07T01:15:10.230Z,101655.53
2023-08-07T01:17:56.654Z,101640.09
2023-08-07T01:20:42.056Z,101651.03
2023-08-07T01:23:26.934Z,101654.63
2023-08-07T01:26:12.267Z,101654.91
2023-08-07T01:29:07.445Z,101657.75
2023-08-07T01:31:55.594Z,101656.63
2023-08-07T01:34:43.128Z,101661.81
2023-08-07T01:37:31.561Z,101655.16
2023-08-07T01:40:17.941Z,101658.97
2023-08-07T01:43:03.494Z,101655.81
2023-08-07T01:45:48.668Z,101654.03
2023-08-07T01:48:33.980Z,101652.63
2023-08-07T01:51:18.935Z,101640.72
2023-08-07T01:54:04.196Z,101635.63
2023-08-07T01:56:49.363Z,101649.34
2023-08-07T01:59:34.511Z,101654.78
2023-08-07T02:02:19.677Z,101651.59
2023-08-07T02:05:05.662Z,101653.47
2023-08-07T02:07:50.834Z,101646.34
2023-08-07T02:10:36.400Z,101655.94
2023-08-07T02:13:21.481Z,101651.59
2023-08-07T02:16:06.407Z,101638.09
2023-08-07T02:18:51.441Z,101661.28
2023-08-07T02:21:36.279Z,101659.31
2023-08-07T02:24:21.422Z,101653.75
2023-08-07T02:27:06.799Z,101642.13
2023-08-07T02:29:52.143Z,101657.41
2023-08-07T02:32:37.276Z,101670.75
2023-08-07T02:35:22.136Z,101664.72
2023-08-07T02:38:07.178Z,101660.22
2023-08-07T02:40:52.114Z,101651.13
2023-08-07T02:43:37.224Z,101677.84
2023-08-07T02:46:22.366Z,101663.31
2023-08-07T02:49:07.857Z,101671.97
2023-08-07T02:51:53.313Z,101672.97
2023-08-07T02:54:38.662Z,101670.47
2023-08-07T02:57:23.986Z,101674.84
2023-08-07T03:00:09.540Z,101668.75
2023-08-07T03:02:54.850Z,101674.84
2023-08-07T03:05:40.271Z,101673.25
2023-08-07T03:08:25.281Z,101671.50
2023-08-07T03:11:10.704Z,101674.13
2023-08-07T03:13:55.682Z,101670.72
2023-08-07T03:16:40.877Z,101668.94
2023-08-07T03:19:26.017Z,101669.97
2023-08-07T03:22:11.045Z,101666.25
2023-08-07T03:24:56.358Z,101668.88
2023-08-07T03:27:41.492Z,101663.50
2023-08-07T03:30:26.541Z,101668.28
2023-08-07T03:33:12.018Z,101671.75
2023-08-07T03:35:57.734Z,101677.25
2023-08-07T03:38:42.777Z,101669.47
2023-08-07T03:41:29.172Z,101654.25
2023-08-07T03:44:14.572Z,101662.81
2023-08-07T03:46:59.428Z,101675.06
2023-08-07T03:49:44.546Z,101672.75
2023-08-07T03:52:29.546Z,101678.16
2023-08-07T03:55:14.527Z,101670.63
2023-08-07T03:57:59.804Z,101672.34
2023-08-07T04:00:45.054Z,101672.50
2023-08-07T04:03:30.063Z,101678.69
2023-08-07T04:06:16.968Z,101661.59
2023-08-07T04:09:04.452Z,101657.66
2023-08-07T04:11:49.718Z,101648.91
2023-08-07T04:14:34.776Z,101657.31
2023-08-07T04:17:19.928Z,101676.91
2023-08-07T04:20:05.810Z,101692.78
2023-08-07T04:22:50.868Z,101668.75
2023-08-07T04:25:36.088Z,101658.69
2023-08-07T04:28:21.528Z,101688.53
2023-08-07T04:31:06.587Z,101681.09
2023-08-07T04:33:51.690Z,101691.59
2023-08-07T04:36:36.622Z,101692.53
2023-08-07T04:39:21.949Z,101690.06
2023-08-07T04:42:07.534Z,101694.31
2023-08-07T04:44:52.985Z,101692.53
2023-08-07T04:47:38.575Z,101693.47
2023-08-07T04:50:23.610Z,101695.84
2023-08-07T04:53:08.896Z,101693.97
2023-08-07T04:55:54.233Z,101691.44
2023-08-07T04:58:39.518Z,101699.88
2023-08-07T05:01:24.658Z,101696.25
2023-08-07T05:04:09.817Z,101695.03
2023-08-07T05:06:54.671Z,101703.28
2023-08-07T05:09:39.744Z,101703.47
2023-08-07T05:12:24.949Z,101698.34
2023-08-07T05:15:10.553Z,101689.63
2023-08-07T05:17:55.771Z,101692.38
2023-08-07T05:20:40.745Z,101706.47
2023-08-07T05:23:25.765Z,101721.03
2023-08-07T05:26:10.775Z,101708.75
2023-08-07T05:28:58.321Z,101707.03
2023-08-07T05:31:43.655Z,101709.91
2023-08-07T05:34:28.710Z,101724.44
2023-08-07T05:37:13.700Z,101717.19
2023-08-07T05:39:58.775Z,101722.25
2023-08-07T05:42:44.131Z,101694.19
2023-08-07T05:45:29.360Z,101707.34
2023-08-07T05:48:14.624Z,101711.22
2023-08-07T05:50:59.974Z,101698.16
2023-08-07T05:53:44.922Z,101700.41
2023-08-07T05:56:30.163Z,101710.09
2023-08-07T05:59:15.290Z,101706.25
2023-08-07T06:02:01.004Z,101704.00
2023-08-07T06:04:46.603Z,101700.13
2023-08-07T06:07:31.943Z,101697.94
2023-08-07T06:10:17.164Z,101712.41
2023-08-07T06:13:02.092Z,101711.81
2023-08-07T06:15:47.694Z,101712.38
2023-08-07T06:18:35.089Z,101722.97
2023-08-07T06:21:21.480Z,101700.53
2023-08-07T06:24:07.686Z,101725.88
2023-08-07T06:26:52.673Z,101717.50
2023-08-07T06:29:37.726Z,101730.91
2023-08-07T06:32:22.844Z,101723.59
2023-08-07T06:35:08.528Z,101710.59
2023-08-07T06:37:53.530Z,101724.94
2023-08-07T06:40:39.042Z,101733.88
2023-08-07T06:43:24.335Z,101726.34
2023-08-07T06:46:09.705Z,101720.47
2023-08-07T06:48:54.784Z,101729.00
2023-08-07T06:51:40.146Z,101712.66
2023-08-07T06:54:25.257Z,101727.34
2023-08-07T06:57:10.588Z,101727.03
2023-08-07T06:59:55.722Z,101729.34
2023-08-07T07:02:41.137Z,101733.97
2023-08-07T07:05:26.070Z,101721.13
2023-08-07T07:08:11.124Z,101730.19
2023-08-07T07:10:58.167Z,101725.91
2023-08-07T07:13:43.540Z,101731.88
2023-08-07T07:16:31.155Z,101720.66
2023-08-07T07:19:17.472Z,101742.06
2023-08-07T07:22:02.746Z,101728.91
2023-08-07T07:24:48.213Z,101733.28
2023-08-07T07:27:33.183Z,101729.56
2023-08-07T07:30:18.296Z,101729.63
2023-08-07T07:33:03.308Z,101726.22
2023-08-07T07:35:48.556Z,101729.81
2023-08-07T07:38:33.842Z,101736.78
2023-08-07T07:41:19.736Z,101720.91
2023-08-07T07:44:05.615Z,101712.03
2023-08-07T07:46:50.898Z,101714.19
2023-08-07T07:49:36.227Z,101717.78
2023-08-07T07:52:21.236Z,101724.19
2023-08-07T07:55:06.986Z,101729.09
2023-08-07T07:57:52.779Z,101722.25
2023-08-07T08:00:38.526Z,101713.53
2023-08-07T08:03:26.835Z,101691.38
2023-08-07T08:06:13.616Z,101698.72
2023-08-07T08:08:58.894Z,101699.53
2023-08-07T08:11:44.611Z,101697.88
2023-08-07T08:14:31.637Z,101706.53
2023-08-07T08:17:22.639Z,101703.03
2023-08-07T08:20:08.850Z,101705.78
2023-08-07T08:22:53.837Z,101713.84
2023-08-07T08:25:39.113Z,101705.28
2023-08-07T08:28:25.559Z,101708.09
2023-08-07T08:31:10.804Z,101706.28
2023-08-07T08:33:56.605Z,101714.50
2023-08-07T08:36:41.484Z,101727.72
2023-08-07T08:39:26.481Z,101720.19
2023-08-07T08:42:15.969Z,101718.94
2023-08-07T08:45:02.339Z,101708.69
2023-08-07T08:47:50.312Z,101708.41
2023-08-07T08:50:37.105Z,101723.53
2023-08-07T08:53:23.435Z,101727.53
2023-08-07T08:56:08.866Z,101716.72
2023-08-07T08:58:54.227Z,101729.25
2023-08-07T09:01:39.682Z,101725.91
2023-08-07T09:04:24.943Z,101723.63
2023-08-07T09:07:11.844Z,101732.31
2023-08-07T09:09:58.411Z,101724.38
2023-08-07T09:12:54.249Z,101721.72
2023-08-07T09:15:40.938Z,101721.63
2023-08-07T09:18:25.931Z,101705.47
2023-08-07T09:21:11.526Z,101717.47
2023-08-07T09:23:56.364Z,101704.34
2023-08-07T09:26:45.041Z,101721.59
2023-08-07T09:29:30.710Z,101718.41
2023-08-07T09:32:16.000Z,101718.94
2023-08-07T09:35:04.320Z,101719.91
2023-08-07T09:37:50.420Z,101721.34
2023-08-07T09:40:35.411Z,101713.91
2023-08-07T09:43:23.806Z,101711.25
2023-08-07T09:46:09.454Z,101720.94
2023-08-07T09:48:59.119Z,101716.16
2023-08-07T09:51:45.805Z,101722.03
2023-08-07T09:54:32.240Z,101720.44
2023-08-07T09:57:17.715Z,101726.38
2023-08-07T10:00:03.440Z,101718.19
2023-08-07T10:02:49.947Z,101732.63
2023-08-07T10:05:35.502Z,101727.00
2023-08-07T10:08:22.693Z,101717.03
2023-08-07T10:11:11.245Z,101721.75
2023-08-07T10:13:58.433Z,101722.63
2023-08-07T10:16:44.174Z,101720.84
2023-08-07T10:19:29.186Z,101725.75
2023-08-07T10:22:19.950Z,101714.78
2023-08-07T10:25:07.248Z,101716.84
2023-08-07T10:27:56.628Z,101714.75
2023-08-07T10:30:42.471Z,101703.78
2023-08-07T10:33:28.299Z,101700.25
2023-08-07T10:36:13.655Z,101709.78
2023-08-07T10:39:09.825Z,101707.00
2023-08-07T10:41:56.338Z,101706.59
2023-08-07T10:44:50.252Z,101701.41
2023-08-07T10:47:35.832Z,101701.16
2023-08-07T10:50:32.291Z,101707.16
2023-08-07T10:53:23.119Z,101680.22
2023-08-07T10:56:16.968Z,101704.56
2023-08-07T10:59:12.664Z,101688.09
2023-08-07T11:01:58.159Z,101688.75
2023-08-07T11:04:44.085Z,101690.38
2023-08-07T11:07:32.382Z,101685.81
2023-08-07T11:10:17.530Z,101691.53
2023-08-07T11:13:02.789Z,101688.34
2023-08-07T11:15:48.563Z,101690.06
2023-08-07T11:18:34.348Z,101678.81
2023-08-07T11:21:19.870Z,101655.56
2023-08-07T11:24:05.616Z,101676.81
2023-08-07T11:26:51.981Z,101664.75
2023-08-07T11:29:37.443Z,101666.09
2023-08-07T11:32:23.139Z,101673.44
2023-08-07T11:35:09.257Z,101675.16
2023-08-07T11:37:55.530Z,101668.09
2023-08-07T11:40:42.728Z,101674.38
2023-08-07T11:43:29.816Z,101670.63
2023-08-07T11:46:19.072Z,101663.09
2023-08-07T11:49:08.011Z,101666.59
2023-08-07T11:51:53.240Z,101650.31
2023-08-07T11:54:38.597Z,101652.53
2023-08-07T11:57:23.767Z,101654.06
2023-08-07T12:00:14.248Z,101647.19
2023-08-07T12:02:59.536Z,101648.38
2023-08-07T12:05:44.801Z,101650.06
2023-08-07T12:08:38.159Z,101641.03
2023-08-07T12:11:23.428Z,101643.88
2023-08-07T12:14:08.428Z,101633.97
2023-08-07T12:16:55.972Z,101645.44
2023-08-07T12:19:44.105Z,101633.19
2023-08-07T12:22:29.606Z,101616.00
2023-08-07T12:25:15.056Z,101628.66
2023-08-07T12:28:00.207Z,101629.00
2023-08-07T12:30:47.569Z,101627.88
2023-08-07T12:33:32.959Z,101627.16
2023-08-07T12:36:20.644Z,101626.66
2023-08-07T12:39:07.578Z,101612.81
2023-08-07T12:44:40.727Z,101624.44
2023-08-07T12:47:26.108Z,101623.09
2023-08-07T12:50:11.291Z,101624.28
2023-08-07T12:52:57.070Z,101621.56
2023-08-07T12:55:42.013Z,101625.28
2023-08-07T12:58:30.306Z,101615.41
2023-08-07T13:01:15.652Z,101607.66
2023-08-07T13:04:00.591Z,101626.13
2023-08-07T13:06:45.694Z,101613.50
2023-08-07T13:09:32.019Z,101619.03
2023-08-07T13:12:17.083Z,101621.00
2023-08-07T13:15:02.387Z,101610.16
2023-08-07T13:17:47.596Z,101611.13
2023-08-07T13:20:35.023Z,101609.28
2023-08-07T13:23:20.638Z,101617.09
2023-08-07T13:26:05.909Z,101619.47
2023-08-07T13:28:51.056Z,101623.34
2023-08-07T13:31:36.329Z,101618.97
2023-08-07T13:34:21.288Z,101615.56
2023-08-07T13:37:07.793Z,101619.91
2023-08-07T13:39:54.070Z,101619.13
2023-08-07T13:42:39.897Z,101625.31
2023-08-07T13:45:24.963Z,101615.69
2023-08-07T13:48:10.959Z,101600.66
2023-08-07T13:50:58.086Z,101605.50
2023-08-07T13:53:43.164Z,101621.53
2023-08-07T13:56:28.431Z,101617.28
2023-08-07T13:59:13.340Z,101610.53
2023-08-07T14:01:58.717Z,101610.72
2023-08-07T14:04:46.392Z,101599.41
2023-08-07T14:07:31.352Z,101610.31
2023-08-07T14:10:16.462Z,101593.16
2023-08-07T14:13:01.645Z,101593.97
2023-08-07T14:15:46.827Z,101603.31
2023-08-07T14:18:31.935Z,101602.25
2023-08-07T14:21:17.290Z,101607.78
2023-08-07T14:24:02.578Z,101607.09
2023-08-07T14:26:47.825Z,101611.44
2023-08-07T14:29:32.833Z,101604.00
2023-08-07T14:32:17.996Z,101597.41
2023-08-07T14:35:03.060Z,101605.75
2023-08-07T14:37:49.505Z,101595.38
2023-08-07T14:40:34.830Z,101589.19
2023-08-07T14:43:20.349Z,101593.38
2023-08-07T14:46:05.477Z,101595.66
2023-08-07T14:48:50.759Z,101573.88
2023-08-07T14:51:36.027Z,101583.31
2023-08-07T14:54:20.910Z,101589.56
2023-08-07T14:57:06.107Z,101578.84
2023-08-07T14:59:51.300Z,101581.88
2023-08-07T15:02:36.383Z,101580.28
2023-08-07T15:05:21.302Z,101573.69
2023-08-07T15:08:06.554Z,101576.94
2023-08-07T15:10:54.264Z,101575.22
2023-08-07T15:13:41.175Z,101562.78
2023-08-07T15:16:26.413Z,101572.22
2023-08-07T15:19:11.869Z,101575.69
2023-08-07T15:21:57.283Z,101558.38
2023-08-07T15:24:42.465Z,101565.28
2023-08-07T15:27:27.447Z,101576.56
2023-08-07T15:30:12.644Z,101572.03
2023-08-07T15:32:57.891Z,101567.28
2023-08-07T15:35:43.372Z,101555.72
2023-08-07T15:38:29.409Z,101556.88
2023-08-07T15:41:14.567Z,101549.09
2023-08-07T15:43:59.780Z,101553.53
2023-08-07T15:46:44.927Z,101552.34
2023-08-07T15:49:30.212Z,101538.91
2023-08-07T15:52:16.640Z,101560.03
2023-08-07T15:55:01.719Z,101534.75
2023-08-07T15:57:47.054Z,101540.38
2023-08-07T16:00:36.684Z,101549.22
2023-08-07T16:03:23.193Z,101543.28
2023-08-07T16:06:08.264Z,101536.72
2023-08-07T16:08:55.578Z,101529.75
2023-08-07T16:11:40.913Z,101523.69
2023-08-07T16:14:26.078Z,101524.06
2023-08-07T16:17:11.236Z,101530.97
2023-08-07T16:19:56.376Z,101528.88
2023-08-07T16:22:41.817Z,101534.31
2023-08-07T16:25:27.116Z,101524.75
2023-08-07T16:28:13.705Z,101499.47
2023-08-07T16:30:58.982Z,101511.03
2023-08-07T16:33:44.022Z,101521.34
2023-08-07T16:36:28.903Z,101510.16
2023-08-07T16:39:14.489Z,101513.03
2023-08-07T16:41:59.676Z,101504.66
2023-08-07T16:44:44.968Z,101515.84
2023-08-07T16:47:30.078Z,101515.88
2023-08-07T16:50:15.034Z,101519.53
2023-08-07T16:53:01.295Z,101505.50
2023-08-07T16:55:46.494Z,101513.66
2023-08-07T16:58:31.599Z,101489.97
2023-08-07T17:01:17.183Z,101506.81
2023-08-07T17:04:02.328Z,101512.34
2023-08-07T17:06:47.660Z,101509.97
2023-08-07T17:09:33.048Z,101508.41
2023-08-07T17:12:18.374Z,101515.56
2023-08-07T17:15:03.555Z,101511.84
2023-08-07T17:17:49.499Z,101496.09
2023-08-07T17:20:34.891Z,101511.25
2023-08-07T17:23:20.013Z,101507.06
2023-08-07T17:26:05.084Z,101504.72
2023-08-07T17:28:51.492Z,101498.69
2023-08-07T17:31:36.912Z,101502.63
2023-08-07T17:34:22.168Z,101505.22
2023-08-07T17:37:07.138Z,101490.22
2023-08-07T17:39:52.263Z,101507.03
2023-08-07T17:42:38.461Z,101507.44
2023-08-07T17:45:24.698Z,101512.09
2023-08-07T17:48:09.897Z,101507.19
2023-08-07T17:50:55.255Z,101507.13
2023-08-07T17:53:41.039Z,101502.06
2023-08-07T17:56:25.961Z,101481.97
2023-08-07T17:59:11.100Z,101496.00
2023-08-07T18:01:56.367Z,101481.59
2023-08-07T18:04:43.377Z,101492.19
2023-08-07T18:07:31.269Z,101494.94
2023-08-07T18:10:16.193Z,101509.31
2023-08-07T18:13:01.122Z,101513.16
2023-08-07T18:15:46.387Z,101501.84
2023-08-07T18:18:31.452Z,101498.03
2023-08-07T18:21:16.551Z,101500.53
2023-08-07T18:24:01.896Z,101495.44
2023-08-07T18:26:47.209Z,101497.47
2023-08-07T18:29:32.271Z,101489.34
2023-08-07T18:32:17.541Z,101495.78
2023-08-07T18:35:02.914Z,101481.78
2023-08-07T18:37:48.152Z,101481.78
2023-08-07T18:40:33.375Z,101482.38
2023-08-07T18:43:18.150Z,101486.47
2023-08-07T18:46:03.217Z,101482.31
2023-08-07T18:48:48.365Z,101479.00
2023-08-07T18:51:35.219Z,101478.72
2023-08-07T18:54:20.415Z,101476.38
2023-08-07T18:57:06.551Z,101464.34
2023-08-07T18:59:52.105Z,101475.03
2023-08-07T19:02:38.848Z,101462.84
2023-08-07T19:05:24.046Z,101465.50
2023-08-07T19:08:09.379Z,101460.66
2023-08-07T19:10:54.315Z,101454.97
2023-08-07T19:13:39.394Z,101461.81
2023-08-07T19:16:24.598Z,101467.72
2023-08-07T19:19:09.921Z,101464.28
2023-08-07T19:21:55.090Z,101466.69
2023-08-07T19:24:40.181Z,101471.63
2023-08-07T19:27:25.359Z,101455.53
2023-08-07T19:30:10.521Z,101464.19
2023-08-07T19:32:55.821Z,101462.81
2023-08-07T19:35:44.950Z,101457.94
2023-08-07T19:38:30.209Z,101472.03
2023-08-07T19:41:15.530Z,101473.13
2023-08-07T19:44:00.848Z,101463.38
2023-08-07T19:46:46.116Z,101467.41
2023-08-07T19:49:31.246Z,101471.44
2023-08-07T19:52:16.272Z,101467.50
2023-08-07T19:55:01.248Z,101471.44
2023-08-07T19:57:46.324Z,101467.38
2023-08-07T20:00:31.746Z,101473.94
2023-08-07T20:03:17.434Z,101467.47
2023-08-07T20:06:02.692Z,101460.78
2023-08-07T20:08:48.341Z,101468.03
2023-08-07T20:11:38.028Z,101469.69
2023-08-07T20:14:23.057Z,101469.50
2023-08-07T20:17:08.504Z,101464.03
2023-08-07T20:19:53.724Z,101476.75
2023-08-07T20:22:38.917Z,101471.28
2023-08-07T20:25:24.203Z,101466.41
2023-08-07T20:28:09.380Z,101473.75
2023-08-07T20:30:54.364Z,101471.22
2023-08-07T20:33:39.346Z,101470.50
2023-08-07T20:36:28.351Z,101468.28
2023-08-07T20:39:14.503Z,101478.28
2023-08-07T20:41:59.927Z,101471.81
2023-08-07T20:44:45.414Z,101479.72
2023-08-07T20:47:30.788Z,101459.44
2023-08-07T20:50:15.947Z,101472.44
2023-08-07T20:53:01.397Z,101467.66
2023-08-07T20:55:46.371Z,101462.41
2023-08-07T20:58:33.797Z,101464.63
2023-08-07T21:01:19.088Z,101456.50
2023-08-07T21:04:04.503Z,101463.31
2023-08-07T21:06:51.728Z,101461.16
2023-08-07T21:09:36.729Z,101451.16
2023-08-07T21:12:21.828Z,101465.53
2023-08-07T21:15:07.578Z,101463.69
2023-08-07T21:17:53.084Z,101447.97
2023-08-07T21:20:38.664Z,101463.31
2023-08-07T21:23:24.004Z,101462.75
2023-08-07T21:26:09.185Z,101448.75
2023-08-07T21:28:54.110Z,101463.38
2023-08-07T21:31:39.325Z,101464.88
2023-08-07T21:34:24.419Z,101463.22
2023-08-07T21:37:09.723Z,101472.56
2023-08-07T21:39:55.040Z,101453.84
2023-08-07T21:42:39.875Z,101469.22
2023-08-07T21:45:24.903Z,101448.22
2023-08-07T21:48:10.383Z,101458.66
2023-08-07T21:50:55.610Z,101466.00
2023-08-07T21:53:40.702Z,101467.81
2023-08-07T21:56:25.779Z,101475.50
2023-08-07T21:59:10.810Z,101470.47
2023-08-07T22:01:56.044Z,101467.59
2023-08-07T22:04:41.791Z,101454.75
2023-08-07T22:07:26.760Z,101465.44
2023-08-07T22:10:11.956Z,101462.56
2023-08-07T22:12:57.286Z,101455.13
2023-08-07T22:15:42.450Z,101462.56
2023-08-07T22:18:27.534Z,101452.72
2023-08-07T22:21:13.257Z,101460.75
2023-08-07T22:23:58.667Z,101463.28
2023-08-07T22:26:43.911Z,101458.69
2023-08-07T22:29:28.986Z,101464.72
2023-08-07T22:32:14.317Z,101469.88
2023-08-07T22:34:59.301Z,101468.06
2023-08-07T22:37:44.670Z,101471.44
2023-08-07T22:40:29.769Z,101468.44
2023-08-07T22:43:15.105Z,101478.16
2023-08-07T22:46:00.117Z,101472.00
2023-08-07T22:48:45.367Z,101459.16
2023-08-07T22:51:30.517Z,101470.44
2023-08-07T22:54:15.638Z,101481.34
2023-08-07T22:57:01.067Z,101472.72
2023-08-07T22:59:46.207Z,101476.28
2023-08-07T23:02:31.866Z,101466.56
2023-08-07T23:05:17.460Z,101466.09
2023-08-07T23:08:02.885Z,101471.25
2023-08-07T23:10:47.958Z,101465.38
2023-08-07T23:13:33.175Z,101464.38
2023-08-07T23:16:18.420Z,101456.72
2023-08-07T23:19:03.646Z,101448.88
2023-08-07T23:21:48.642Z,101457.38
2023-08-07T23:24:33.597Z,101454.75
2023-08-07T23:27:18.690Z,101456.44
2023-08-07T23:30:05.907Z,101446.09
2023-08-07T23:32:51.229Z,101447.06
2023-08-07T23:35:36.510Z,101452.25
2023-08-07T23:38:21.546Z,101444.16
2023-08-07T23:41:06.564Z,101440.94
2023-08-07T23:43:51.893Z,101446.13
2023-08-07T23:46:36.937Z,101451.00
2023-08-07T23:49:22.818Z,101455.19
2023-08-07T23:52:08.126Z,101430.78
2023-08-07T23:54:53.194Z,101435.13
2023-08-07T23:57:38.579Z,101440.78
